createdAt,value
2019-05-13T00:00:53.943Z,49.70
2019-05-13T00:02:30.090Z,49.70
2019-05-13T00:04:06.046Z,49.60
2019-05-13T00:05:44.245Z,49.60
2019-05-13T00:07:19.583Z,49.80
2019-05-13T00:08:55.832Z,49.70
2019-05-13T00:10:31.722Z,49.90
2019-05-13T00:12:07.662Z,50.00
2019-05-13T00:13:44.436Z,50.30
2019-05-13T00:15:20.420Z,50.40
2019-05-13T00:16:56.589Z,49.90
2019-05-13T00:18:34.033Z,50.00
2019-05-13T00:20:10.579Z,50.20
2019-05-13T00:21:46.483Z,50.20
2019-05-13T00:23:23.390Z,50.30
2019-05-13T00:24:59.726Z,50.40
2019-05-13T00:26:35.577Z,50.50
2019-05-13T00:28:11.480Z,50.80
2019-05-13T00:29:47.396Z,50.70
2019-05-13T00:31:24.123Z,50.70
2019-05-13T00:33:00.145Z,50.80
2019-05-13T00:34:36.388Z,50.80
2019-05-13T00:36:14.262Z,50.70
2019-05-13T00:37:49.888Z,50.90
2019-05-13T00:39:25.783Z,51.10
2019-05-13T00:41:03.706Z,51.10
2019-05-13T00:42:39.254Z,51.20
2019-05-13T00:44:15.156Z,51.30
2019-05-13T00:45:52.867Z,51.30
2019-05-13T00:47:28.625Z,51.40
2019-05-13T00:49:04.868Z,51.40
2019-05-13T00:50:40.973Z,51.40
2019-05-13T00:52:16.851Z,51.50
2019-05-13T00:53:53.663Z,51.50
2019-05-13T00:55:29.755Z,51.50
2019-05-13T00:57:06.292Z,51.40
2019-05-13T00:58:43.656Z,51.50
2019-05-13T01:00:20.478Z,51.60
2019-05-13T01:01:56.366Z,51.70
2019-05-13T01:03:33.828Z,51.80
2019-05-13T01:05:11.364Z,51.80
2019-05-13T01:06:47.254Z,51.80
2019-05-13T01:08:24.021Z,51.80
2019-05-13T01:09:59.930Z,51.80
2019-05-13T01:11:36.118Z,51.90
2019-05-13T01:13:13.634Z,51.90
2019-05-13T01:14:50.301Z,52.00
2019-05-13T01:16:26.204Z,52.00
2019-05-13T01:18:04.078Z,52.00
2019-05-13T01:19:40.169Z,52.10
2019-05-13T01:21:16.319Z,52.10
2019-05-13T01:22:54.142Z,52.20
2019-05-13T01:24:29.883Z,52.90
2019-05-13T01:26:05.859Z,52.20
2019-05-13T01:27:44.219Z,52.30
2019-05-13T01:29:19.830Z,52.50
2019-05-13T01:30:56.867Z,52.60
2019-05-13T01:32:34.323Z,52.10
2019-05-13T01:34:14.092Z,52.50
2019-05-13T01:35:49.534Z,52.50
2019-05-13T01:37:39.070Z,52.50
2019-05-13T01:39:04.243Z,52.50
2019-05-13T01:40:40.207Z,52.60
2019-05-13T01:42:16.105Z,53.20
2019-05-13T01:43:54.331Z,52.70
2019-05-13T01:45:30.014Z,52.70
2019-05-13T01:47:06.169Z,52.70
2019-05-13T01:48:43.745Z,52.90
2019-05-13T01:50:19.756Z,53.10
2019-05-13T01:51:55.940Z,53.20
2019-05-13T01:53:33.642Z,53.20
2019-05-13T01:55:09.944Z,53.30
2019-05-13T01:56:45.832Z,53.50
2019-05-13T01:58:23.597Z,53.40
2019-05-13T01:59:59.595Z,53.50
2019-05-13T02:01:35.768Z,53.50
2019-05-13T02:03:14.520Z,53.50
2019-05-13T02:04:53.134Z,53.60
2019-05-13T02:06:29.221Z,53.60
2019-05-13T02:08:05.282Z,53.70
2019-05-13T02:09:41.178Z,53.70
2019-05-13T02:11:17.072Z,53.70
2019-05-13T02:12:53.567Z,53.80
2019-05-13T02:14:29.553Z,54.00
2019-05-13T02:16:05.434Z,54.70
2019-05-13T02:17:41.397Z,54.20
2019-05-13T02:19:17.289Z,54.90
2019-05-13T02:20:55.276Z,54.20
2019-05-13T02:22:30.893Z,54.50
2019-05-13T02:24:06.797Z,54.60
2019-05-13T02:25:43.942Z,54.60
2019-05-13T02:27:19.831Z,54.80
2019-05-13T02:28:55.738Z,54.70
2019-05-13T02:30:35.034Z,54.70
2019-05-13T02:32:13.262Z,54.90
2019-05-13T02:33:46.879Z,54.90
2019-05-13T02:35:23.847Z,55.00
2019-05-13T02:37:02.847Z,55.00
2019-05-13T02:38:37.337Z,55.10
2019-05-13T02:40:13.978Z,55.10
2019-05-13T02:41:52.643Z,55.20
2019-05-13T02:43:27.809Z,55.40
2019-05-13T02:45:04.147Z,55.40
2019-05-13T02:46:43.975Z,55.50
2019-05-13T02:48:17.913Z,55.60
2019-05-13T02:49:53.861Z,55.70
2019-05-13T02:51:32.675Z,55.80
2019-05-13T02:53:07.338Z,55.90
2019-05-13T02:54:43.279Z,56.00
2019-05-13T02:56:22.395Z,56.00
2019-05-13T02:57:56.771Z,56.10
2019-05-13T02:59:33.689Z,56.10
2019-05-13T03:01:12.599Z,56.20
2019-05-13T03:02:48.759Z,56.30
2019-05-13T03:04:24.946Z,56.40
2019-05-13T03:06:02.929Z,56.40
2019-05-13T03:07:38.462Z,56.50
2019-05-13T03:09:14.361Z,56.50
2019-05-13T03:10:53.126Z,56.60
2019-05-13T03:12:28.115Z,56.80
2019-05-13T03:14:05.064Z,56.70
2019-05-13T03:15:42.827Z,56.70
2019-05-13T03:17:22.790Z,56.70
2019-05-13T03:18:58.581Z,56.70
2019-05-13T03:20:35.745Z,56.70
2019-05-13T03:22:13.449Z,56.80
2019-05-13T03:23:52.236Z,56.90
2019-05-13T03:25:27.880Z,56.90
2019-05-13T03:27:04.151Z,57.00
2019-05-13T03:28:43.069Z,57.70
2019-05-13T03:30:17.754Z,57.10
2019-05-13T03:31:55.665Z,57.10
2019-05-13T03:33:36.911Z,57.10
2019-05-13T03:35:09.004Z,57.20
2019-05-13T03:36:46.889Z,57.20
2019-05-13T03:38:23.783Z,57.40
2019-05-13T03:40:03.410Z,57.30
2019-05-13T03:41:42.267Z,57.40
2019-05-13T03:43:18.386Z,57.50
2019-05-13T03:44:55.593Z,57.60
2019-05-13T03:46:34.105Z,57.80
2019-05-13T03:48:12.203Z,57.90
2019-05-13T03:49:53.254Z,57.90
2019-05-13T03:51:27.991Z,58.00
2019-05-13T03:53:04.321Z,58.00
2019-05-13T03:54:43.306Z,58.00
2019-05-13T03:56:18.373Z,58.20
2019-05-13T03:57:53.902Z,58.10
2019-05-13T03:59:33.094Z,58.20
2019-05-13T04:01:07.891Z,58.30
2019-05-13T04:02:44.460Z,58.20
2019-05-13T04:04:23.341Z,58.40
2019-05-13T04:05:58.020Z,58.20
2019-05-13T04:07:33.598Z,58.10
2019-05-13T04:09:25.169Z,58.20
2019-05-13T04:10:47.391Z,58.30
2019-05-13T04:12:28.106Z,58.30
2019-05-13T04:14:03.190Z,58.40
2019-05-13T04:15:42.566Z,58.40
2019-05-13T04:17:16.914Z,58.30
2019-05-13T04:18:53.850Z,58.20
2019-05-13T04:20:29.569Z,58.30
2019-05-13T04:22:06.209Z,58.50
2019-05-13T04:23:42.879Z,58.50
2019-05-13T04:25:22.818Z,58.40
2019-05-13T04:26:56.561Z,58.50
2019-05-13T04:28:33.423Z,58.50
2019-05-13T04:30:13.294Z,58.60
2019-05-13T04:31:49.017Z,58.60
2019-05-13T04:33:24.561Z,58.60
2019-05-13T04:35:03.770Z,58.70
2019-05-13T04:36:38.392Z,58.90
2019-05-13T04:38:14.669Z,59.10
2019-05-13T04:39:54.927Z,59.20
2019-05-13T04:41:42.403Z,59.30
2019-05-13T04:43:18.812Z,59.40
2019-05-13T04:44:54.769Z,59.60
2019-05-13T04:46:32.756Z,59.50
2019-05-13T04:48:08.540Z,59.50
2019-05-13T04:49:44.434Z,59.30
2019-05-13T04:51:22.593Z,59.30
2019-05-13T04:52:57.906Z,59.10
2019-05-13T04:54:34.315Z,59.00
2019-05-13T04:56:13.768Z,58.70
2019-05-13T04:57:48.716Z,58.60
2019-05-13T04:59:24.616Z,58.40
2019-05-13T05:01:52.240Z,57.90
2019-05-13T05:03:44.864Z,57.70
2019-05-13T05:05:45.233Z,57.50
2019-05-13T05:07:58.748Z,57.20
2019-05-13T05:10:02.819Z,56.60
2019-05-13T05:11:43.174Z,56.30
2019-05-13T05:14:02.484Z,55.80
2019-05-13T05:16:28.981Z,55.40
2019-05-13T05:18:32.884Z,54.80
2019-05-13T05:20:23.130Z,54.30
2019-05-13T05:22:15.313Z,53.80
2019-05-13T05:24:22.027Z,53.00
2019-05-13T05:26:21.950Z,52.40
2019-05-13T05:28:12.740Z,51.70
2019-05-13T05:30:26.059Z,51.40
2019-05-13T05:32:15.198Z,50.80
2019-05-13T05:34:23.855Z,50.30
2019-05-13T05:38:46.439Z,48.90
2019-05-13T05:40:31.452Z,48.70
2019-05-13T05:42:02.796Z,47.90
2019-05-13T05:43:45.352Z,47.10
2019-05-13T05:45:21.915Z,46.70
2019-05-13T05:47:02.558Z,46.50
2019-05-13T05:48:42.033Z,46.50
2019-05-13T05:50:18.072Z,45.70
2019-05-13T05:52:03.256Z,45.10
2019-05-13T05:53:42.744Z,44.40
2019-05-13T05:55:18.308Z,44.30
2019-05-13T05:56:56.691Z,43.60
2019-05-13T05:58:34.446Z,43.00
2019-05-13T06:00:11.610Z,42.80
2019-05-13T06:01:52.372Z,43.00
2019-05-13T06:03:29.254Z,43.10
2019-05-13T06:05:07.536Z,42.20
2019-05-13T06:06:43.884Z,42.40
2019-05-13T06:08:22.047Z,42.10
2019-05-13T06:09:57.729Z,41.60
2019-05-13T06:11:34.393Z,41.50
2019-05-13T06:13:12.181Z,41.50
2019-05-13T06:14:48.462Z,41.30
2019-05-13T06:16:25.192Z,40.90
2019-05-13T06:18:02.295Z,40.30
2019-05-13T06:19:38.665Z,40.10
2019-05-13T06:21:14.187Z,39.90
2019-05-13T06:22:51.593Z,40.60
2019-05-13T06:24:27.271Z,39.80
2019-05-13T06:26:03.997Z,39.70
2019-05-13T06:27:39.551Z,39.50
2019-05-13T06:29:17.052Z,39.50
2019-05-13T06:30:52.583Z,39.30
2019-05-13T06:32:31.237Z,39.20
2019-05-13T06:34:06.082Z,39.20
2019-05-13T06:35:44.735Z,39.20
2019-05-13T06:37:21.535Z,39.10
2019-05-13T06:38:57.254Z,39.00
2019-05-13T06:40:32.762Z,38.90
2019-05-13T06:42:11.445Z,39.10
2019-05-13T06:43:46.268Z,39.10
2019-05-13T06:45:23.597Z,39.30
2019-05-13T06:46:59.126Z,39.00
2019-05-13T06:48:35.421Z,38.80
2019-05-13T06:50:11.925Z,38.70
2019-05-13T06:51:48.248Z,38.40
2019-05-13T06:53:23.771Z,38.40
2019-05-13T06:55:02.677Z,38.20
2019-05-13T06:56:37.518Z,38.20
2019-05-13T06:58:13.772Z,38.40
2019-05-13T06:59:49.302Z,38.50
2019-05-13T07:01:26.453Z,38.40
2019-05-13T07:03:02.419Z,38.10
2019-05-13T07:04:38.741Z,37.80
2019-05-13T07:06:14.689Z,37.70
2019-05-13T07:07:51.369Z,37.30
2019-05-13T07:09:26.923Z,37.30
2019-05-13T07:11:17.164Z,37.70
2019-05-13T07:12:41.171Z,37.70
2019-05-13T07:14:17.726Z,37.70
2019-05-13T07:15:53.248Z,37.40
2019-05-13T07:17:32.201Z,37.10
2019-05-13T07:19:06.722Z,37.10
2019-05-13T07:20:43.605Z,37.20
2019-05-13T07:22:22.609Z,37.40
2019-05-13T07:23:57.141Z,37.50
2019-05-13T07:25:32.864Z,37.50
2019-05-13T07:27:09.122Z,37.70
2019-05-13T07:28:44.699Z,37.50
2019-05-13T07:30:42.494Z,37.40
2019-05-13T07:32:21.950Z,37.10
2019-05-13T07:33:57.572Z,37.50
2019-05-13T07:35:37.965Z,37.10
2019-05-13T07:37:11.527Z,36.80
2019-05-13T07:38:47.928Z,36.90
2019-05-13T07:40:23.889Z,36.40
2019-05-13T07:42:04.699Z,36.40
2019-05-13T07:43:38.457Z,36.40
2019-05-13T07:45:14.856Z,36.20
2019-05-13T07:46:52.294Z,35.80
2019-05-13T07:48:28.850Z,36.00
2019-05-13T07:50:07.817Z,35.80
2019-05-13T07:51:43.713Z,35.20
2019-05-13T07:53:22.027Z,35.30
2019-05-13T07:54:57.269Z,35.00
2019-05-13T07:56:33.163Z,35.20
2019-05-13T07:58:11.329Z,35.50
2019-05-13T07:59:46.719Z,35.60
2019-05-13T08:01:23.685Z,35.80
2019-05-13T08:03:01.533Z,35.80
2019-05-13T08:04:37.196Z,35.80
2019-05-13T08:06:13.706Z,35.40
2019-05-13T08:07:51.511Z,35.30
2019-05-13T08:09:27.349Z,35.00
2019-05-13T08:11:03.341Z,35.10
2019-05-13T08:12:41.277Z,35.40
2019-05-13T08:14:17.193Z,34.70
2019-05-13T08:15:54.719Z,34.60
2019-05-13T08:17:32.731Z,34.70
2019-05-13T08:19:08.430Z,34.30
2019-05-13T08:20:44.333Z,34.50
2019-05-13T08:22:22.112Z,34.40
2019-05-13T08:23:57.819Z,34.80
2019-05-13T08:25:33.742Z,34.70
2019-05-13T08:27:11.823Z,34.10
2019-05-13T08:29:00.076Z,33.90
2019-05-13T08:30:24.903Z,33.90
2019-05-13T08:32:02.858Z,33.50
2019-05-13T08:33:38.731Z,33.70
2019-05-13T08:35:15.365Z,33.60
2019-05-13T08:36:51.494Z,33.80
2019-05-13T08:38:27.442Z,33.40
2019-05-13T08:40:03.518Z,33.50
2019-05-13T08:41:39.412Z,33.50
2019-05-13T08:43:16.435Z,33.10
2019-05-13T08:44:52.714Z,33.00
2019-05-13T08:46:28.666Z,33.00
2019-05-13T08:48:04.610Z,33.00
2019-05-13T08:49:41.488Z,33.20
2019-05-13T08:51:17.581Z,33.30
2019-05-13T08:52:53.474Z,32.70
2019-05-13T08:54:29.358Z,32.20
2019-05-13T08:56:05.362Z,32.10
2019-05-13T08:57:42.042Z,32.10
2019-05-13T08:59:18.049Z,32.00
2019-05-13T09:00:58.952Z,32.40
2019-05-13T09:02:33.940Z,31.70
2019-05-13T09:04:11.860Z,31.80
2019-05-13T09:05:47.799Z,31.40
2019-05-13T09:07:24.476Z,31.20
2019-05-13T09:09:02.400Z,30.90
2019-05-13T09:10:38.037Z,30.50
2019-05-13T09:12:28.592Z,30.40
2019-05-13T09:13:52.088Z,30.70
2019-05-13T09:15:27.986Z,31.20
2019-05-13T09:17:03.915Z,31.10
2019-05-13T09:18:42.445Z,30.90
2019-05-13T09:20:17.839Z,31.00
2019-05-13T09:21:53.730Z,31.10
2019-05-13T09:23:31.433Z,31.40
2019-05-13T09:25:07.481Z,31.80
2019-05-13T09:26:44.615Z,31.60
2019-05-13T09:28:21.818Z,31.00
2019-05-13T09:29:57.861Z,30.20
2019-05-13T09:31:33.792Z,29.70
2019-05-13T09:33:11.475Z,29.50
2019-05-13T09:34:47.459Z,29.10
2019-05-13T09:36:23.386Z,28.90
2019-05-13T09:38:02.962Z,28.50
2019-05-13T09:39:37.012Z,28.70
2019-05-13T09:41:12.916Z,29.00
2019-05-13T09:42:52.063Z,29.20
2019-05-13T09:44:26.400Z,29.50
2019-05-13T09:46:02.936Z,29.80
2019-05-13T09:47:38.839Z,30.00
2019-05-13T09:49:19.735Z,28.50
2019-05-13T09:50:52.363Z,28.00
2019-05-13T09:52:28.293Z,27.70
2019-05-13T09:54:04.181Z,27.90
2019-05-13T09:55:41.546Z,28.00
2019-05-13T09:57:17.567Z,28.70
2019-05-13T09:58:53.499Z,28.90
2019-05-13T10:00:32.095Z,28.50
2019-05-13T10:02:07.005Z,28.50
2019-05-13T10:03:53.756Z,28.50
2019-05-13T10:05:22.404Z,29.30
2019-05-13T10:07:01.547Z,30.40
2019-05-13T10:08:36.371Z,30.10
2019-05-13T10:10:12.779Z,29.90
2019-05-13T10:11:48.661Z,30.40
2019-05-13T10:13:24.580Z,30.30
2019-05-13T10:15:02.020Z,30.00
2019-05-13T10:16:38.236Z,29.40
2019-05-13T10:18:14.129Z,29.30
2019-05-13T10:19:52.004Z,29.20
2019-05-13T10:21:27.992Z,29.00
2019-05-13T10:23:03.897Z,28.50
2019-05-13T10:24:42.076Z,28.40
2019-05-13T10:26:17.545Z,28.30
2019-05-13T10:27:53.708Z,27.80
2019-05-13T10:29:31.668Z,28.10
2019-05-13T10:31:07.979Z,28.40
2019-05-13T10:32:43.942Z,28.70
2019-05-13T10:34:22.069Z,28.80
2019-05-13T10:35:58.038Z,28.60
2019-05-13T10:37:33.986Z,28.30
2019-05-13T10:39:11.911Z,28.10
2019-05-13T10:40:48.196Z,27.90
2019-05-13T10:42:24.104Z,28.10
2019-05-13T10:44:02.926Z,28.40
2019-05-13T10:45:38.135Z,28.10
2019-05-13T10:47:14.047Z,28.00
2019-05-13T10:48:52.436Z,27.70
2019-05-13T10:50:27.856Z,27.50
2019-05-13T10:52:04.034Z,27.20
2019-05-13T10:53:42.662Z,27.20
2019-05-13T10:55:21.435Z,27.40
2019-05-13T10:56:59.726Z,27.10
2019-05-13T10:58:33.841Z,27.40
2019-05-13T11:00:12.236Z,27.50
2019-05-13T11:01:48.280Z,27.70
2019-05-13T11:03:24.328Z,27.30
2019-05-13T11:05:02.973Z,27.10
2019-05-13T11:06:37.819Z,27.00
2019-05-13T11:08:13.811Z,27.20
2019-05-13T11:09:52.435Z,26.90
2019-05-13T11:11:27.284Z,27.00
2019-05-13T11:13:06.141Z,26.90
2019-05-13T11:14:42.221Z,26.90
2019-05-13T11:16:18.371Z,27.40
2019-05-13T11:17:54.281Z,27.70
2019-05-13T11:19:36.773Z,28.10
2019-05-13T11:21:13.049Z,28.60
2019-05-13T11:22:48.009Z,29.50
2019-05-13T11:24:23.900Z,30.00
2019-05-13T11:26:02.806Z,31.10
2019-05-13T11:27:37.402Z,31.20
2019-05-13T11:29:13.659Z,30.80
2019-05-13T11:30:51.901Z,30.40
2019-05-13T11:32:27.495Z,30.40
2019-05-13T11:34:03.406Z,29.70
2019-05-13T11:35:41.503Z,30.50
2019-05-13T11:37:17.058Z,30.80
2019-05-13T11:40:31.818Z,30.80
2019-05-13T11:42:07.844Z,30.00
2019-05-13T11:43:43.747Z,29.90
2019-05-13T11:45:22.374Z,30.00
2019-05-13T11:46:57.702Z,30.10
2019-05-13T11:48:33.770Z,30.20
2019-05-13T11:50:11.571Z,30.40
2019-05-13T11:51:47.741Z,30.10
2019-05-13T11:53:32.653Z,30.10
2019-05-13T11:55:02.538Z,30.50
2019-05-13T11:56:46.348Z,30.00
2019-05-13T11:58:17.151Z,29.50
2019-05-13T11:59:53.093Z,29.40
2019-05-13T12:01:29.246Z,29.60
2019-05-13T12:03:05.128Z,30.10
2019-05-13T12:04:43.344Z,30.70
2019-05-13T12:06:22.888Z,31.30
2019-05-13T12:07:56.615Z,31.50
2019-05-13T12:09:32.552Z,31.40
2019-05-13T12:11:08.474Z,31.40
2019-05-13T12:12:44.468Z,31.20
2019-05-13T12:14:42.987Z,31.20
2019-05-13T12:15:58.311Z,31.40
2019-05-13T12:17:34.216Z,31.80
2019-05-13T12:19:11.795Z,32.30
2019-05-13T12:20:47.717Z,31.70
2019-05-13T12:22:23.612Z,32.30
2019-05-13T12:24:07.234Z,32.30
2019-05-13T12:25:37.394Z,32.10
2019-05-13T12:27:13.286Z,31.70
2019-05-13T12:28:53.199Z,31.50
2019-05-13T12:30:27.554Z,31.90
2019-05-13T12:32:03.581Z,31.50
2019-05-13T12:33:43.804Z,31.40
2019-05-13T12:35:17.240Z,31.60
2019-05-13T12:36:53.131Z,31.80
2019-05-13T12:38:32.550Z,31.90
2019-05-13T12:40:07.466Z,31.90
2019-05-13T12:41:43.357Z,31.80
2019-05-13T12:43:19.279Z,32.20
2019-05-13T12:46:32.757Z,32.60
2019-05-13T12:48:13.652Z,32.30
2019-05-13T12:49:47.575Z,31.80
2019-05-13T12:51:23.486Z,31.10
2019-05-13T12:53:02.543Z,30.30
2019-05-13T12:54:37.311Z,30.10
2019-05-13T12:56:13.203Z,30.00
2019-05-13T12:57:52.066Z,29.70
2019-05-13T12:59:27.705Z,29.30
2019-05-13T13:01:03.937Z,29.10
2019-05-13T13:02:39.825Z,29.10
2019-05-13T13:04:15.732Z,28.80
2019-05-13T13:05:51.726Z,29.00
2019-05-13T13:07:28.719Z,29.10
2019-05-13T13:09:06.370Z,29.20
2019-05-13T13:10:42.474Z,29.20
2019-05-13T13:12:18.339Z,29.10
2019-05-13T13:13:59.602Z,29.00
2019-05-13T13:15:40.718Z,29.80
2019-05-13T13:17:12.209Z,29.60
2019-05-13T13:18:47.490Z,29.70
2019-05-13T13:20:24.276Z,29.70
2019-05-13T13:23:38.115Z,29.90
2019-05-13T13:25:14.323Z,30.20
2019-05-13T13:26:53.387Z,29.80
2019-05-13T13:28:29.357Z,29.60
2019-05-13T13:30:08.820Z,29.40
2019-05-13T13:31:44.710Z,29.90
2019-05-13T13:33:20.626Z,29.50
2019-05-13T13:34:56.541Z,29.30
2019-05-13T13:36:33.812Z,28.60
2019-05-13T13:38:10.227Z,28.20
2019-05-13T13:39:46.560Z,28.00
2019-05-13T13:41:23.048Z,28.00
2019-05-13T13:43:04.016Z,27.40
2019-05-13T13:44:37.641Z,26.70
2019-05-13T13:46:32.758Z,26.40
2019-05-13T13:48:02.180Z,26.50
2019-05-13T13:49:34.904Z,26.10
2019-05-13T13:51:08.239Z,25.70
2019-05-13T13:52:45.603Z,25.90
2019-05-13T13:54:22.530Z,26.10
2019-05-13T13:55:58.593Z,25.30
2019-05-13T13:57:34.482Z,25.80
2019-05-13T13:59:13.859Z,26.00
2019-05-13T14:01:01.735Z,25.70
2019-05-13T14:02:26.874Z,25.90
2019-05-13T14:04:04.244Z,25.80
2019-05-13T14:05:42.763Z,26.00
2019-05-13T14:06:33.328Z,32.40
2019-05-13T14:06:52.391Z,30.00
2019-05-13T14:07:02.975Z,31.10
2019-05-13T14:07:27.975Z,25.80
2019-05-13T14:08:55.289Z,25.70
2019-05-13T14:10:31.929Z,25.40
2019-05-13T14:12:08.274Z,25.00
2019-05-13T14:13:44.183Z,25.20
2019-05-13T14:15:21.532Z,25.50
2019-05-13T14:16:57.899Z,25.60
2019-05-13T14:18:33.790Z,25.30
2019-05-13T14:20:10.237Z,25.40
2019-05-13T14:21:46.130Z,25.60
2019-05-13T14:23:22.003Z,25.80
2019-05-13T14:24:57.975Z,26.30
2019-05-13T14:26:33.886Z,26.50
2019-05-13T14:28:09.876Z,26.40
2019-05-13T14:29:49.173Z,26.60
2019-05-13T14:31:23.413Z,26.60
2019-05-13T14:32:59.303Z,26.60
2019-05-13T14:34:35.200Z,26.40
2019-05-13T14:36:12.286Z,26.50
2019-05-13T14:37:48.394Z,26.50
2019-05-13T14:39:25.324Z,26.80
2019-05-13T14:41:03.085Z,27.10
2019-05-13T14:42:39.265Z,27.50
2019-05-13T14:44:15.184Z,27.70
2019-05-13T14:45:52.116Z,27.60
2019-05-13T14:47:28.159Z,27.70
2019-05-13T14:49:04.310Z,27.70
2019-05-13T14:50:41.651Z,27.70
2019-05-13T14:52:17.701Z,27.60
2019-05-13T14:53:53.921Z,27.50
2019-05-13T14:55:31.909Z,27.70
2019-05-13T14:57:07.409Z,27.80
2019-05-13T14:58:43.625Z,28.00
2019-05-13T15:00:22.080Z,28.00
2019-05-13T15:01:58.116Z,28.10
2019-05-13T15:03:34.834Z,28.00
2019-05-13T15:05:12.138Z,27.60
2019-05-13T15:06:49.447Z,27.50
2019-05-13T15:08:26.040Z,27.30
2019-05-13T15:10:02.565Z,26.80
2019-05-13T15:11:38.591Z,26.30
2019-05-13T15:13:15.152Z,26.50
2019-05-13T15:14:52.395Z,26.70
2019-05-13T15:16:31.713Z,26.50
2019-05-13T15:18:07.122Z,26.60
2019-05-13T15:19:43.005Z,26.70
2019-05-13T15:21:21.248Z,26.90
2019-05-13T15:22:56.503Z,26.90
2019-05-13T15:24:32.723Z,27.10
2019-05-13T15:26:08.720Z,27.20
2019-05-13T15:27:44.615Z,27.30
2019-05-13T15:29:22.377Z,27.10
2019-05-13T15:30:58.466Z,27.40
2019-05-13T15:32:35.607Z,27.60
2019-05-13T15:34:11.998Z,27.70
2019-05-13T15:35:48.038Z,27.60
2019-05-13T15:37:23.982Z,27.70
2019-05-13T15:39:01.492Z,27.60
2019-05-13T15:40:38.852Z,27.40
2019-05-13T15:42:15.210Z,27.40
2019-05-13T15:43:51.878Z,27.00
2019-05-13T15:45:27.981Z,27.10
2019-05-13T15:47:18.167Z,27.10
2019-05-13T15:48:42.263Z,27.10
2019-05-13T15:50:18.225Z,27.20
2019-05-13T15:51:54.146Z,27.00
2019-05-13T15:53:32.039Z,26.90
2019-05-13T15:55:11.452Z,27.10
2019-05-13T15:56:46.972Z,27.20
2019-05-13T15:58:38.064Z,27.30
2019-05-13T16:00:01.911Z,27.60
2019-05-13T16:01:41.487Z,27.70
2019-05-13T16:03:17.967Z,27.80
2019-05-13T16:05:00.949Z,28.50
2019-05-13T16:06:32.140Z,28.00
2019-05-13T16:08:08.150Z,27.90
2019-05-13T16:09:44.054Z,27.90
2019-05-13T16:11:22.040Z,27.90
2019-05-13T16:12:57.584Z,27.70
2019-05-13T16:14:33.510Z,27.70
2019-05-13T16:16:12.131Z,27.80
2019-05-13T16:17:47.595Z,27.90
2019-05-13T16:19:23.469Z,28.00
2019-05-13T16:21:01.523Z,28.00
2019-05-13T16:22:36.983Z,28.20
2019-05-13T16:24:12.883Z,28.10
2019-05-13T16:25:48.801Z,28.30
2019-05-13T16:27:24.694Z,28.40
2019-05-13T16:29:02.096Z,28.50
2019-05-13T16:30:38.386Z,28.50
2019-05-13T16:32:14.280Z,28.50
2019-05-13T16:33:52.199Z,28.70
2019-05-13T16:35:28.367Z,28.80
2019-05-13T16:37:05.601Z,28.90
2019-05-13T16:38:41.860Z,29.00
2019-05-13T16:40:18.232Z,29.20
2019-05-13T16:41:54.221Z,29.20
2019-05-13T16:43:31.981Z,29.10
2019-05-13T16:45:07.921Z,29.10
2019-05-13T16:46:43.824Z,29.00
2019-05-13T16:48:21.534Z,29.10
2019-05-13T16:49:57.563Z,29.30
2019-05-13T16:51:33.477Z,29.40
2019-05-13T16:53:10.343Z,29.50
2019-05-13T16:54:46.239Z,29.40
2019-05-13T16:56:27.793Z,29.60
2019-05-13T16:58:02.019Z,29.80
2019-05-13T16:59:41.646Z,29.80
2019-05-13T17:01:17.903Z,29.60
2019-05-13T17:02:53.738Z,29.60
2019-05-13T17:04:31.946Z,29.50
2019-05-13T17:06:07.211Z,29.50
2019-05-13T17:07:43.478Z,29.50
2019-05-13T17:09:19.284Z,29.50
2019-05-13T17:10:55.546Z,29.50
2019-05-13T17:12:31.724Z,29.60
2019-05-13T17:14:08.103Z,29.70
2019-05-13T17:15:43.632Z,29.50
2019-05-13T17:17:19.915Z,29.40
2019-05-13T17:18:55.460Z,29.30
2019-05-13T17:20:32.224Z,29.50
2019-05-13T17:22:07.838Z,29.50
2019-05-13T17:23:44.126Z,29.50
2019-05-13T17:25:19.649Z,29.50
2019-05-13T17:26:55.901Z,29.50
2019-05-13T17:28:34.060Z,29.60
2019-05-13T17:30:11.591Z,29.70
2019-05-13T17:31:47.249Z,29.50
2019-05-13T17:33:23.524Z,29.50
2019-05-13T17:34:59.301Z,29.50
2019-05-13T17:36:35.569Z,29.50
2019-05-13T17:38:11.501Z,29.60
2019-05-13T17:39:48.141Z,29.70
2019-05-13T17:41:23.666Z,29.60
2019-05-13T17:42:59.956Z,29.60
2019-05-13T17:44:35.505Z,29.70
2019-05-13T17:46:11.765Z,29.50
2019-05-13T17:47:47.349Z,29.20
2019-05-13T17:49:23.595Z,29.20
2019-05-13T17:51:01.128Z,29.40
2019-05-13T17:52:37.078Z,29.70
2019-05-13T17:54:12.629Z,29.70
2019-05-13T17:55:51.240Z,30.10
2019-05-13T17:57:26.773Z,29.70
2019-05-13T17:59:03.397Z,29.50
2019-05-13T18:00:38.908Z,29.60
2019-05-13T18:02:15.172Z,29.60
2019-05-13T18:03:51.800Z,29.70
2019-05-13T18:05:31.372Z,29.80
2019-05-13T18:07:06.767Z,29.80
2019-05-13T18:08:43.108Z,29.90
2019-05-13T18:10:19.369Z,30.00
2019-05-13T18:11:55.638Z,30.00
2019-05-13T18:13:31.712Z,30.10
2019-05-13T18:15:08.886Z,30.30
2019-05-13T18:16:44.393Z,30.30
2019-05-13T18:18:21.554Z,30.50
2019-05-13T18:19:57.194Z,30.50
2019-05-13T18:21:33.784Z,30.70
2019-05-13T18:23:09.400Z,30.70
2019-05-13T18:24:45.982Z,30.60
2019-05-13T18:26:21.751Z,30.70
2019-05-13T18:27:58.079Z,30.80
2019-05-13T18:29:33.621Z,30.80
2019-05-13T18:31:12.244Z,30.80
2019-05-13T18:32:47.838Z,30.80
2019-05-13T18:34:24.118Z,31.00
2019-05-13T18:36:01.799Z,31.10
2019-05-13T18:37:37.584Z,31.10
2019-05-13T18:39:13.146Z,31.80
2019-05-13T18:40:49.489Z,32.80
2019-05-13T18:42:25.042Z,33.30
2019-05-13T18:44:01.484Z,33.50
2019-05-13T18:45:37.025Z,33.30
2019-05-13T18:47:13.587Z,33.00
2019-05-13T18:48:58.639Z,32.80
2019-05-13T18:50:27.108Z,32.60
2019-05-13T18:52:02.960Z,32.40
2019-05-13T18:53:41.306Z,32.70
2019-05-13T18:55:16.522Z,32.90
2019-05-13T18:56:52.790Z,33.00
2019-05-13T18:58:28.299Z,33.00
2019-05-13T19:00:08.255Z,32.90
2019-05-13T19:01:43.775Z,33.00
2019-05-13T19:03:21.792Z,32.90
2019-05-13T19:04:57.292Z,33.10
2019-05-13T19:06:33.543Z,33.10
2019-05-13T19:08:09.081Z,33.20
2019-05-13T19:09:45.431Z,33.20
2019-05-13T19:11:22.349Z,33.20
2019-05-13T19:12:58.682Z,33.30
2019-05-13T19:14:34.210Z,33.30
2019-05-13T19:16:11.902Z,33.40
2019-05-13T19:17:47.538Z,33.70
2019-05-13T19:19:23.824Z,33.80
2019-05-13T19:21:01.716Z,33.80
2019-05-13T19:22:37.311Z,33.90
2019-05-13T19:24:13.531Z,34.10
2019-05-13T19:25:51.467Z,34.20
2019-05-13T19:27:26.972Z,34.30
2019-05-13T19:29:04.325Z,34.50
2019-05-13T19:30:41.191Z,34.70
2019-05-13T19:32:17.699Z,35.00
2019-05-13T19:33:53.565Z,35.10
2019-05-13T19:35:32.151Z,35.30
2019-05-13T19:37:07.162Z,35.40
2019-05-13T19:38:43.430Z,35.70
2019-05-13T19:40:19.029Z,35.90
2019-05-13T19:41:55.298Z,36.00
2019-05-13T19:43:31.479Z,36.20
2019-05-13T19:45:08.096Z,36.30
2019-05-13T19:46:43.688Z,36.50
2019-05-13T19:48:21.764Z,36.70
2019-05-13T19:49:57.273Z,37.00
2019-05-13T19:51:33.544Z,37.10
2019-05-13T19:53:09.068Z,37.10
2019-05-13T19:54:45.367Z,37.10
2019-05-13T19:56:21.823Z,37.10
2019-05-13T19:57:58.100Z,37.20
2019-05-13T19:59:33.621Z,37.30
2019-05-13T20:01:11.626Z,37.30
2019-05-13T20:02:47.095Z,37.50
2019-05-13T20:04:23.367Z,37.60
2019-05-13T20:05:58.905Z,37.80
2019-05-13T20:07:35.172Z,37.90
2019-05-13T20:09:10.697Z,38.40
2019-05-13T20:10:46.969Z,38.60
2019-05-13T20:12:22.717Z,38.60
2019-05-13T20:14:01.350Z,39.00
2019-05-13T20:15:36.469Z,39.00
2019-05-13T20:17:12.974Z,39.40
2019-05-13T20:18:48.882Z,39.50
2019-05-13T20:20:25.467Z,39.50
2019-05-13T20:22:02.354Z,40.00
2019-05-13T20:23:38.833Z,40.70
2019-05-13T20:25:15.001Z,40.50
2019-05-13T20:26:52.152Z,40.40
2019-05-13T20:28:27.946Z,40.20
2019-05-13T20:30:04.576Z,40.30
2019-05-13T20:31:41.348Z,40.10
2019-05-13T20:33:17.644Z,40.00
2019-05-13T20:34:53.197Z,40.10
2019-05-13T20:36:31.484Z,39.90
2019-05-13T20:38:06.726Z,40.30
2019-05-13T20:39:42.986Z,40.20
2019-05-13T20:41:18.828Z,40.50
2019-05-13T20:42:55.089Z,40.50
2019-05-13T20:44:31.290Z,41.20
2019-05-13T20:46:08.240Z,40.70
2019-05-13T20:47:43.756Z,40.70
2019-05-13T20:49:21.854Z,40.70
2019-05-13T20:50:58.426Z,40.80
2019-05-13T20:52:34.693Z,40.70
2019-05-13T20:54:11.349Z,40.90
2019-05-13T20:55:47.926Z,41.10